createdAt,value
2023-03-25T00:00:39.876Z,99275.00
2023-03-25T00:01:43.606Z,99289.41
2023-03-25T00:02:48.711Z,99291.34
2023-03-25T00:03:53.377Z,99291.34
2023-03-25T00:04:55.736Z,99297.16
2023-03-25T00:05:59.092Z,99291.63
2023-03-25T00:07:01.579Z,99294.69
2023-03-25T00:08:04.270Z,99293.88
2023-03-25T00:09:06.670Z,99283.94
2023-03-25T00:10:10.066Z,99285.59
2023-03-25T00:11:12.373Z,99289.47
2023-03-25T00:12:18.869Z,99287.00
2023-03-25T00:13:23.719Z,99287.00
2023-03-25T00:14:26.399Z,99281.72
2023-03-25T00:15:30.330Z,99282.56
2023-03-25T00:16:33.569Z,99277.34
2023-03-25T00:17:37.225Z,99272.91
2023-03-25T00:18:40.613Z,99280.91
2023-03-25T00:19:43.854Z,99283.97
2023-03-25T00:20:49.827Z,99284.78
2023-03-25T00:21:52.334Z,99278.44
2023-03-25T00:22:55.246Z,99278.44
2023-03-25T00:23:58.676Z,99277.91
2023-03-25T00:25:01.204Z,99272.38
2023-03-25T00:26:04.135Z,99276.25
2023-03-25T00:27:06.452Z,99279.00
2023-03-25T00:28:08.782Z,99278.19
2023-03-25T00:29:11.878Z,99278.50
2023-03-25T00:30:15.891Z,99268.53
2023-03-25T00:31:18.254Z,99271.31
2023-03-25T00:32:21.549Z,99259.72
2023-03-25T00:33:23.849Z,99262.75
2023-03-25T00:34:26.381Z,99264.72
2023-03-25T00:35:29.294Z,99263.06
2023-03-25T00:36:31.667Z,99259.50
2023-03-25T00:37:34.567Z,99259.75
2023-03-25T00:38:38.384Z,99262.81
2023-03-25T00:39:40.788Z,99258.13
2023-03-25T00:40:44.236Z,99262.00
2023-03-25T00:41:48.506Z,99261.19
2023-03-25T00:42:51.045Z,99262.59
2023-03-25T00:43:58.382Z,99268.09
2023-03-25T00:45:02.363Z,99261.75
2023-03-25T00:46:05.183Z,99260.94
2023-03-25T00:47:07.560Z,99258.47
2023-03-25T00:48:10.681Z,99270.63
2023-03-25T00:49:12.988Z,99266.19
2023-03-25T00:50:15.558Z,99267.00
2023-03-25T00:51:19.688Z,99260.97
2023-03-25T00:52:23.281Z,99263.72
2023-03-25T00:53:26.053Z,99266.50
2023-03-25T00:54:28.327Z,99263.72
2023-03-25T00:55:31.106Z,99261.25
2023-03-25T00:56:33.617Z,99263.19
2023-03-25T00:57:36.944Z,99265.13
2023-03-25T00:58:40.284Z,99259.59
2023-03-25T00:59:42.877Z,99261.53
2023-03-25T01:00:45.588Z,99264.28
2023-03-25T01:01:49.073Z,99278.09
2023-03-25T01:02:54.346Z,99282.81
2023-03-25T01:03:58.187Z,99275.91
2023-03-25T01:05:01.914Z,99270.41
2023-03-25T01:06:04.885Z,99274.25
2023-03-25T01:07:08.193Z,99270.69
2023-03-25T01:08:15.191Z,99267.38
2023-03-25T01:09:19.513Z,99266.56
2023-03-25T01:10:22.737Z,99265.72
2023-03-25T01:11:30.399Z,99262.69
2023-03-25T01:12:33.188Z,99253.88
2023-03-25T01:13:35.592Z,99261.34
2023-03-25T01:14:38.161Z,99259.69
2023-03-25T01:15:41.199Z,99254.97
2023-03-25T01:16:45.847Z,99262.72
2023-03-25T01:17:48.374Z,99253.34
2023-03-25T01:18:50.654Z,99258.03
2023-03-25T01:19:53.655Z,99247.53
2023-03-25T01:20:56.525Z,99248.09
2023-03-25T01:21:58.876Z,99247.28
2023-03-25T01:23:01.259Z,99250.03
2023-03-25T01:24:08.022Z,99248.09
2023-03-25T01:25:11.896Z,99247.28
2023-03-25T01:26:14.425Z,99244.81
2023-03-25T01:27:17.879Z,99249.47
2023-03-25T01:28:20.946Z,99243.16
2023-03-25T01:29:23.457Z,99239.28
2023-03-25T01:30:27.536Z,99235.16
2023-03-25T01:31:30.745Z,99237.06
2023-03-25T01:32:33.179Z,99236.81
2023-03-25T01:33:36.722Z,99222.16
2023-03-25T01:34:38.968Z,99238.22
2023-03-25T01:35:41.535Z,99229.09
2023-03-25T01:36:46.908Z,99223.56
2023-03-25T01:37:54.062Z,99229.94
2023-03-25T01:39:01.683Z,99232.94
2023-03-25T01:40:10.523Z,99220.00
2023-03-25T01:41:12.778Z,99228.28
2023-03-25T01:42:15.697Z,99222.75
2023-03-25T01:43:18.517Z,99209.75
2023-03-25T01:44:24.338Z,99220.00
2023-03-25T01:45:29.476Z,99227.16
2023-03-25T01:46:31.751Z,99213.38
2023-03-25T01:47:34.258Z,99214.75
2023-03-25T01:48:44.104Z,99210.59
2023-03-25T01:49:46.967Z,99210.06
2023-03-25T01:50:58.569Z,99215.56
2023-03-25T01:52:30.598Z,99210.06
2023-03-25T01:53:34.000Z,99207.28
2023-03-25T01:54:39.044Z,99208.09
2023-03-25T01:55:41.495Z,99197.91
2023-03-25T01:56:47.377Z,99200.97
2023-03-25T01:57:54.599Z,99191.53
2023-03-25T01:58:59.017Z,99188.78
2023-03-25T02:00:02.094Z,99185.22
2023-03-25T02:01:21.928Z,99191.84
2023-03-25T02:02:38.702Z,99192.69
2023-03-25T02:03:46.513Z,99186.03
2023-03-25T02:05:02.231Z,99190.72
2023-03-25T02:06:11.310Z,99191.53
2023-03-25T02:07:16.841Z,99192.69
2023-03-25T02:08:20.997Z,99185.22
2023-03-25T02:09:27.775Z,99183.25
2023-03-25T02:10:30.659Z,99190.44
2023-03-25T02:11:33.886Z,99196.25
2023-03-25T02:12:36.370Z,99195.97
2023-03-25T02:13:41.013Z,99193.19
2023-03-25T02:14:43.330Z,99195.97
2023-03-25T02:16:21.685Z,99186.03
2023-03-25T02:18:02.178Z,99195.16
2023-03-25T02:19:33.259Z,99194.03
2023-03-25T02:20:55.435Z,99192.38
2023-03-25T02:21:57.794Z,99180.22
2023-03-25T02:23:14.258Z,99175.81
2023-03-25T02:24:54.305Z,99176.63
2023-03-25T02:26:33.101Z,99178.88
2023-03-25T02:27:46.255Z,99165.06
2023-03-25T02:29:07.440Z,99174.75
2023-03-25T02:30:19.387Z,99171.69
2023-03-25T02:31:34.525Z,99173.63
2023-03-25T02:32:40.616Z,99174.75
2023-03-25T02:34:11.394Z,99175.56
2023-03-25T02:36:04.123Z,99179.13
2023-03-25T02:37:26.742Z,99163.41
2023-03-25T02:38:42.116Z,99172.50
2023-03-25T02:39:54.163Z,99165.06
2023-03-25T02:41:04.125Z,99164.22
2023-03-25T02:42:40.598Z,99165.88
2023-03-25T02:43:51.589Z,99164.78
2023-03-25T02:45:06.300Z,99163.94
2023-03-25T02:46:16.163Z,99163.66
2023-03-25T02:47:22.786Z,99169.19
2023-03-25T02:48:35.955Z,99160.06
2023-03-25T02:49:48.501Z,99160.91
2023-03-25T02:50:57.964Z,99161.72
2023-03-25T02:52:08.549Z,99153.44
2023-03-25T02:53:18.111Z,99163.38
2023-03-25T02:54:22.143Z,99159.50
2023-03-25T02:55:30.845Z,99157.84
2023-03-25T02:56:33.777Z,99156.19
2023-03-25T02:57:40.608Z,99162.25
2023-03-25T02:58:46.206Z,99160.63
2023-03-25T02:59:50.929Z,99165.84
2023-03-25T03:00:54.154Z,99166.66
2023-03-25T03:01:58.804Z,99171.38
2023-03-25T03:03:04.134Z,99181.00
2023-03-25T03:04:07.959Z,99170.25
2023-03-25T03:05:26.794Z,99171.63
2023-03-25T03:06:29.416Z,99164.72
2023-03-25T03:07:41.779Z,99168.31
2023-03-25T03:08:50.837Z,99171.06
2023-03-25T03:10:20.010Z,99156.44
2023-03-25T03:11:54.279Z,99166.38
2023-03-25T03:13:17.324Z,99158.91
2023-03-25T03:14:46.718Z,99160.03
2023-03-25T03:16:07.902Z,99163.63
2023-03-25T03:17:18.607Z,99159.22
2023-03-25T03:18:58.909Z,99164.44
2023-03-25T03:20:13.119Z,99168.00
2023-03-25T03:21:31.512Z,99166.38
2023-03-25T03:22:44.113Z,99161.13
2023-03-25T03:24:02.835Z,99165.84
2023-03-25T03:25:11.354Z,99167.50
2023-03-25T03:26:26.691Z,99153.97
2023-03-25T03:27:34.841Z,99165.03
2023-03-25T03:29:05.731Z,99164.19
2023-03-25T03:30:32.805Z,99168.91
2023-03-25T03:32:06.979Z,99163.38
2023-03-25T03:33:22.031Z,99167.25
2023-03-25T03:34:34.740Z,99166.44
2023-03-25T03:35:43.347Z,99168.34
2023-03-25T03:36:50.762Z,99163.94
2023-03-25T03:37:59.740Z,99179.69
2023-03-25T03:39:09.795Z,99174.16
2023-03-25T03:40:19.992Z,99177.22
2023-03-25T03:41:27.295Z,99186.59
2023-03-25T03:42:55.879Z,99170.03
2023-03-25T03:44:03.545Z,99173.91
2023-03-25T03:45:11.635Z,99170.34
2023-03-25T03:46:21.090Z,99169.50
2023-03-25T03:47:30.813Z,99174.19
2023-03-25T03:48:47.697Z,99170.91
2023-03-25T03:50:15.637Z,99172.84
2023-03-25T03:51:38.614Z,99173.66
2023-03-25T03:52:47.115Z,99176.72
2023-03-25T03:53:55.007Z,99178.66
2023-03-25T03:55:02.074Z,99176.19
2023-03-25T03:56:23.722Z,99178.94
2023-03-25T03:58:01.479Z,99178.41
2023-03-25T03:59:13.445Z,99176.19
2023-03-25T04:00:26.047Z,99181.97
2023-03-25T04:01:46.487Z,99181.47
2023-03-25T04:02:56.071Z,99178.69
2023-03-25T04:04:07.913Z,99180.66
2023-03-25T04:05:13.795Z,99187.28
2023-03-25T04:06:24.799Z,99194.19
2023-03-25T04:07:43.877Z,99184.81
2023-03-25T04:08:59.613Z,99190.59
2023-03-25T04:10:17.515Z,99191.72
2023-03-25T04:11:24.910Z,99191.72
2023-03-25T04:12:31.346Z,99191.97
2023-03-25T04:13:39.725Z,99190.88
2023-03-25T04:14:42.942Z,99185.66
2023-03-25T04:15:45.276Z,99188.41
2023-03-25T04:16:47.875Z,99186.75
2023-03-25T04:17:50.553Z,99187.59
2023-03-25T04:18:53.902Z,99194.22
2023-03-25T04:19:57.073Z,99196.13
2023-03-25T04:21:01.220Z,99185.09
2023-03-25T04:22:05.727Z,99184.84
2023-03-25T04:23:10.071Z,99195.88
2023-03-25T04:24:17.050Z,99188.41
2023-03-25T04:25:22.289Z,99188.41
2023-03-25T04:26:24.896Z,99185.66
2023-03-25T04:27:30.055Z,99193.13
2023-03-25T04:28:32.799Z,99192.28
2023-03-25T04:29:35.448Z,99192.28
2023-03-25T04:30:37.743Z,99189.50
2023-03-25T04:31:46.350Z,99185.09
2023-03-25T04:32:49.155Z,99188.16
2023-03-25T04:33:52.153Z,99187.03
2023-03-25T04:34:59.888Z,99183.47
2023-03-25T04:36:02.359Z,99192.28
2023-03-25T04:37:04.801Z,99184.59
2023-03-25T04:38:08.202Z,99182.63
2023-03-25T04:39:12.099Z,99178.78
2023-03-25T04:40:18.986Z,99181.22
2023-03-25T04:41:22.835Z,99178.78
2023-03-25T04:42:33.243Z,99173.25
2023-03-25T04:43:36.281Z,99182.34
2023-03-25T04:44:39.401Z,99187.84
2023-03-25T04:45:49.982Z,99194.50
2023-03-25T04:46:53.037Z,99194.22
2023-03-25T04:47:55.527Z,99194.22
2023-03-25T04:48:58.553Z,99188.72
2023-03-25T04:50:02.082Z,99193.13
2023-03-25T04:51:04.821Z,99191.47
2023-03-25T04:52:09.527Z,99195.03
2023-03-25T04:53:11.853Z,99198.63
2023-03-25T04:54:16.437Z,99201.41
2023-03-25T04:55:24.094Z,99198.91
2023-03-25T04:56:26.907Z,99192.28
2023-03-25T04:57:31.564Z,99189.81
2023-03-25T04:58:34.066Z,99185.94
2023-03-25T04:59:37.126Z,99192.88
2023-03-25T05:00:39.564Z,99194.78
2023-03-25T05:01:42.628Z,99194.50
2023-03-25T05:02:46.904Z,99203.91
2023-03-25T05:03:50.497Z,99205.56
2023-03-25T05:04:55.340Z,99196.13
2023-03-25T05:05:59.000Z,99198.63
2023-03-25T05:07:01.331Z,99192.56
2023-03-25T05:08:04.239Z,99185.09
2023-03-25T05:09:09.271Z,99197.28
2023-03-25T05:10:12.880Z,99196.13
2023-03-25T05:11:15.195Z,99205.81
2023-03-25T05:12:17.467Z,99193.66
2023-03-25T05:13:21.086Z,99206.38
2023-03-25T05:14:23.405Z,99205.56
2023-03-25T05:15:28.636Z,99205.56
2023-03-25T05:16:31.115Z,99190.63
2023-03-25T05:17:33.593Z,99199.75
2023-03-25T05:18:35.992Z,99201.66
2023-03-25T05:19:38.284Z,99208.31
2023-03-25T05:20:42.981Z,99212.19
2023-03-25T05:21:45.997Z,99200.84
2023-03-25T05:22:48.311Z,99208.31
2023-03-25T05:23:51.848Z,99209.94
2023-03-25T05:24:54.564Z,99214.34
2023-03-25T05:25:56.829Z,99205.81
2023-03-25T05:27:02.644Z,99201.13
2023-03-25T05:28:10.116Z,99205.00
2023-03-25T05:29:15.055Z,99199.19
2023-03-25T05:30:17.613Z,99201.13
2023-03-25T05:31:20.033Z,99201.13
2023-03-25T05:32:22.802Z,99188.75
2023-03-25T05:33:25.688Z,99194.25
2023-03-25T05:34:30.146Z,99194.53
2023-03-25T05:35:32.645Z,99187.09
2023-03-25T05:36:35.900Z,99201.13
2023-03-25T05:37:38.271Z,99200.06
2023-03-25T05:38:44.566Z,99191.50
2023-03-25T05:39:46.935Z,99198.13
2023-03-25T05:40:49.420Z,99194.53
2023-03-25T05:41:55.923Z,99194.25
2023-03-25T05:42:58.256Z,99197.53
2023-03-25T05:44:03.165Z,99190.91
2023-03-25T05:45:05.875Z,99205.00
2023-03-25T05:46:09.346Z,99207.75
2023-03-25T05:47:12.329Z,99200.59
2023-03-25T05:48:15.086Z,99195.06
2023-03-25T05:49:18.122Z,99205.81
2023-03-25T05:50:21.861Z,99205.00
2023-03-25T05:51:26.572Z,99200.28
2023-03-25T05:52:29.860Z,99210.53
2023-03-25T05:53:33.635Z,99210.81
2023-03-25T05:54:42.799Z,99190.66
2023-03-25T05:55:45.115Z,99213.88
2023-03-25T05:56:50.208Z,99214.69
2023-03-25T05:57:52.579Z,99207.22
2023-03-25T05:58:56.232Z,99216.34
2023-03-25T05:59:58.498Z,99215.22
2023-03-25T06:01:03.243Z,99213.56
2023-03-25T06:02:12.516Z,99218.25
2023-03-25T06:03:15.663Z,99226.00
2023-03-25T06:04:18.030Z,99226.81
2023-03-25T06:05:24.039Z,99228.47
2023-03-25T06:06:27.880Z,99236.47
2023-03-25T06:07:31.185Z,99237.56
2023-03-25T06:08:35.482Z,99234.00
2023-03-25T06:09:38.062Z,99245.31
2023-03-25T06:10:40.357Z,99239.81
2023-03-25T06:11:42.722Z,99242.84
2023-03-25T06:12:47.259Z,99248.09
2023-03-25T06:13:50.233Z,99252.78
2023-03-25T06:14:54.504Z,99255.53
2023-03-25T06:15:57.581Z,99246.44
2023-03-25T06:16:59.926Z,99241.75
2023-03-25T06:18:02.246Z,99243.13
2023-03-25T06:19:04.712Z,99258.03
2023-03-25T06:20:12.852Z,99242.28
2023-03-25T06:21:15.132Z,99249.75
2023-03-25T06:22:20.456Z,99253.34
2023-03-25T06:23:22.738Z,99251.69
2023-03-25T06:24:26.183Z,99256.38
2023-03-25T06:25:28.877Z,99258.31
2023-03-25T06:26:33.031Z,99254.44
2023-03-25T06:27:40.728Z,99251.16
2023-03-25T06:28:43.675Z,99255.81
2023-03-25T06:29:47.408Z,99246.44
2023-03-25T06:30:50.442Z,99250.56
2023-03-25T06:31:54.254Z,99248.09
2023-03-25T06:32:58.802Z,99253.88
2023-03-25T06:34:02.668Z,99254.69
2023-03-25T06:35:07.408Z,99262.63
2023-03-25T06:36:13.784Z,99257.34
2023-03-25T06:37:16.212Z,99252.31
2023-03-25T06:38:19.038Z,99252.53
2023-03-25T06:39:40.076Z,99259.34
2023-03-25T06:40:52.351Z,99263.41
2023-03-25T06:41:54.733Z,99255.84
2023-03-25T06:43:09.426Z,99253.25
2023-03-25T06:44:17.374Z,99247.88
2023-03-25T06:45:51.855Z,99250.44
2023-03-25T06:47:02.662Z,99238.44
2023-03-25T06:48:19.242Z,99247.97
2023-03-25T06:49:22.227Z,99261.41
2023-03-25T06:50:24.846Z,99257.09
2023-03-25T06:51:27.397Z,99251.94
2023-03-25T06:52:29.725Z,99251.22
2023-03-25T06:53:32.990Z,99249.66
2023-03-25T06:54:35.407Z,99256.38
2023-03-25T06:55:39.018Z,99267.84
2023-03-25T06:56:41.950Z,99267.41
2023-03-25T06:57:44.662Z,99273.63
2023-03-25T06:58:47.278Z,99268.44
2023-03-25T06:59:49.954Z,99277.09
2023-03-25T07:00:55.662Z,99269.16
2023-03-25T07:01:58.634Z,99262.28
2023-03-25T07:03:01.977Z,99277.59
2023-03-25T07:04:05.516Z,99276.31
2023-03-25T07:05:08.326Z,99278.34
2023-03-25T07:06:20.612Z,99278.16
2023-03-25T07:07:22.946Z,99278.81
2023-03-25T07:08:25.427Z,99271.41
2023-03-25T07:09:33.277Z,99270.38
2023-03-25T07:10:35.678Z,99258.53
2023-03-25T07:11:38.115Z,99271.72
2023-03-25T07:12:40.772Z,99261.00
2023-03-25T07:13:43.214Z,99262.22
2023-03-25T07:14:54.940Z,99276.19
2023-03-25T07:16:02.555Z,99269.56
2023-03-25T07:17:05.086Z,99267.53
2023-03-25T07:18:07.601Z,99268.72
2023-03-25T07:19:10.628Z,99274.34
2023-03-25T07:20:14.547Z,99268.06
2023-03-25T07:21:19.570Z,99279.56
2023-03-25T07:22:22.027Z,99269.97
2023-03-25T07:23:24.566Z,99268.41
2023-03-25T07:24:26.927Z,99272.38
2023-03-25T07:25:29.192Z,99269.16
2023-03-25T07:26:31.599Z,99275.59
2023-03-25T07:27:33.908Z,99280.69
2023-03-25T07:28:43.067Z,99266.66
2023-03-25T07:29:45.338Z,99270.75
2023-03-25T07:30:47.707Z,99279.28
2023-03-25T07:31:50.073Z,99257.03
2023-03-25T07:32:52.475Z,99261.47
2023-03-25T07:33:55.709Z,99270.94
2023-03-25T07:34:58.332Z,99272.59
2023-03-25T07:36:00.865Z,99268.97
2023-03-25T07:37:04.395Z,99275.19
2023-03-25T07:38:07.912Z,99279.09
2023-03-25T07:39:10.313Z,99271.41
2023-03-25T07:40:12.998Z,99280.38
2023-03-25T07:41:16.476Z,99285.75
2023-03-25T07:42:31.969Z,99278.69
2023-03-25T07:43:49.108Z,99278.00
2023-03-25T07:45:01.169Z,99284.81
2023-03-25T07:46:05.805Z,99285.75
2023-03-25T07:47:08.207Z,99289.84
2023-03-25T07:48:14.913Z,99281.09
2023-03-25T07:49:17.524Z,99281.53
2023-03-25T07:50:23.783Z,99283.56
2023-03-25T07:51:29.727Z,99294.63
2023-03-25T07:52:32.056Z,99289.19
2023-03-25T07:53:34.376Z,99289.63
2023-03-25T07:54:37.245Z,99294.19
2023-03-25T07:55:39.594Z,99294.91
2023-03-25T07:56:42.020Z,99305.63
2023-03-25T07:57:44.592Z,99293.28
2023-03-25T07:58:46.922Z,99295.34
2023-03-25T07:59:50.772Z,99287.13
2023-03-25T08:00:57.448Z,99296.72
2023-03-25T08:01:59.767Z,99299.59
2023-03-25T08:03:02.527Z,99310.78
2023-03-25T08:04:07.220Z,99310.91
2023-03-25T08:05:10.909Z,99311.59
2023-03-25T08:06:13.329Z,99315.63
2023-03-25T08:07:15.730Z,99321.78
2023-03-25T08:08:18.070Z,99307.97
2023-03-25T08:09:20.515Z,99319.16
2023-03-25T08:10:22.841Z,99318.44
2023-03-25T08:11:26.413Z,99311.88
2023-03-25T08:12:28.657Z,99312.28
2023-03-25T08:13:31.323Z,99315.94
2023-03-25T08:14:33.999Z,99314.69
2023-03-25T08:15:36.641Z,99318.41
2023-03-25T08:16:39.074Z,99320.13
2023-03-25T08:17:41.509Z,99318.03
2023-03-25T08:18:45.406Z,99316.78
2023-03-25T08:19:48.763Z,99312.97
2023-03-25T08:20:54.188Z,99319.72
2023-03-25T08:21:56.512Z,99329.47
2023-03-25T08:22:59.109Z,99327.06
2023-03-25T08:24:07.150Z,99323.25
2023-03-25T08:25:09.597Z,99328.38
2023-03-25T08:26:11.894Z,99336.47
2023-03-25T08:27:16.591Z,99338.78
2023-03-25T08:28:24.963Z,99335.25
2023-03-25T08:29:28.161Z,99334.50
2023-03-25T08:30:31.168Z,99338.44
2023-03-25T08:31:33.649Z,99341.78
2023-03-25T08:32:38.729Z,99342.69
2023-03-25T08:33:43.498Z,99341.66
2023-03-25T08:34:46.019Z,99337.00
2023-03-25T08:35:51.394Z,99341.47
2023-03-25T08:36:53.962Z,99337.13
2023-03-25T08:37:56.219Z,99343.56
2023-03-25T08:38:58.561Z,99339.22
2023-03-25T08:40:11.285Z,99346.16
2023-03-25T08:41:14.030Z,99355.34
2023-03-25T08:42:17.938Z,99354.59
2023-03-25T08:43:20.241Z,99354.63
2023-03-25T08:44:22.533Z,99345.59
2023-03-25T08:45:24.812Z,99352.03
2023-03-25T08:46:27.264Z,99360.09
2023-03-25T08:47:29.669Z,99359.31
2023-03-25T08:48:32.232Z,99363.81
2023-03-25T08:49:34.770Z,99350.84
2023-03-25T08:50:37.064Z,99364.50
2023-03-25T08:51:39.729Z,99361.78
2023-03-25T08:52:42.388Z,99365.72
2023-03-25T08:53:45.000Z,99378.16
2023-03-25T08:54:47.386Z,99389.28
2023-03-25T08:56:00.110Z,99366.69
2023-03-25T08:57:02.940Z,99383.56
2023-03-25T08:58:06.430Z,99381.69
2023-03-25T08:59:08.826Z,99384.19
2023-03-25T09:00:14.858Z,99382.31
2023-03-25T09:01:17.159Z,99383.97
2023-03-25T09:02:19.713Z,99382.38
2023-03-25T09:03:23.799Z,99381.81
2023-03-25T09:04:26.264Z,99379.91
2023-03-25T09:05:30.226Z,99390.44
2023-03-25T09:06:47.623Z,99386.31
2023-03-25T09:07:55.379Z,99384.69
2023-03-25T09:09:00.569Z,99384.97
2023-03-25T09:10:04.283Z,99383.88
2023-03-25T09:11:06.803Z,99384.19
2023-03-25T09:12:09.659Z,99385.56
2023-03-25T09:13:12.227Z,99383.66
2023-03-25T09:14:14.585Z,99385.03
2023-03-25T09:15:16.852Z,99382.03
2023-03-25T09:16:19.113Z,99387.31
2023-03-25T09:17:21.849Z,99379.28
2023-03-25T09:18:24.275Z,99385.94
2023-03-25T09:19:26.590Z,99387.59
2023-03-25T09:20:28.944Z,99390.94
2023-03-25T09:21:31.520Z,99396.44
2023-03-25T09:22:34.032Z,99400.31
2023-03-25T09:23:36.488Z,99380.47
2023-03-25T09:24:39.110Z,99389.28
2023-03-25T09:25:42.078Z,99386.00
2023-03-25T09:26:44.318Z,99383.53
2023-03-25T09:27:46.685Z,99384.91
2023-03-25T09:28:49.128Z,99386.31
2023-03-25T09:29:51.657Z,99386.56
2023-03-25T09:30:54.995Z,99381.63
2023-03-25T09:31:58.580Z,99381.06
2023-03-25T09:33:01.874Z,99376.91
2023-03-25T09:34:04.151Z,99383.56
2023-03-25T09:35:06.910Z,99381.91
2023-03-25T09:36:09.398Z,99382.19
2023-03-25T09:37:15.219Z,99378.06
2023-03-25T09:38:17.500Z,99375.84
2023-03-25T09:39:19.887Z,99360.41
2023-03-25T09:40:22.761Z,99353.53
2023-03-25T09:41:46.774Z,99355.44
2023-03-25T09:42:59.079Z,99370.63
2023-03-25T09:44:13.706Z,99375.63
2023-03-25T09:45:32.948Z,99376.72
2023-03-25T09:46:38.821Z,99373.94
2023-03-25T09:48:00.685Z,99364.31
2023-03-25T09:49:03.329Z,99358.78
2023-03-25T09:50:10.826Z,99358.22
2023-03-25T09:51:19.083Z,99354.38
2023-03-25T09:52:28.110Z,99357.94
2023-03-25T09:53:51.905Z,99346.38
2023-03-25T09:54:59.735Z,99348.84
2023-03-25T09:56:05.519Z,99351.03
2023-03-25T09:57:13.970Z,99348.53
2023-03-25T09:58:25.275Z,99341.34
2023-03-25T09:59:41.893Z,99337.47
2023-03-25T10:00:46.512Z,99347.41
2023-03-25T10:02:02.594Z,99334.94
2023-03-25T10:03:18.872Z,99341.81
2023-03-25T10:04:49.881Z,99339.00
2023-03-25T10:06:14.938Z,99330.91
2023-03-25T10:07:32.800Z,99340.25
2023-03-25T10:09:12.611Z,99339.97
2023-03-25T10:10:39.570Z,99336.28
2023-03-25T10:12:11.434Z,99340.38
2023-03-25T10:13:20.252Z,99334.53
2023-03-25T10:14:38.148Z,99340.25
2023-03-25T10:16:01.935Z,99334.94
2023-03-25T10:17:21.662Z,99324.06
2023-03-25T10:19:08.317Z,99326.19
2023-03-25T10:20:21.193Z,99321.09
2023-03-25T10:22:03.441Z,99325.44
2023-03-25T10:23:15.944Z,99322.78
2023-03-25T10:24:36.652Z,99328.19
2023-03-25T10:25:45.879Z,99318.41
2023-03-25T10:26:54.861Z,99320.25
2023-03-25T10:27:59.699Z,99321.53
2023-03-25T10:29:10.420Z,99322.53
2023-03-25T10:30:22.344Z,99321.56
2023-03-25T10:31:28.612Z,99317.84
2023-03-25T10:32:38.633Z,99318.81
2023-03-25T10:33:51.650Z,99310.38
2023-03-25T10:34:56.293Z,99309.22
2023-03-25T10:36:00.935Z,99310.47
2023-03-25T10:37:10.505Z,99311.22
2023-03-25T10:38:26.932Z,99311.94
2023-03-25T10:39:34.257Z,99309.63
2023-03-25T10:40:44.941Z,99311.47
2023-03-25T10:41:53.381Z,99320.25
2023-03-25T10:43:36.834Z,99301.88
2023-03-25T10:44:39.332Z,99312.06
2023-03-25T10:45:43.782Z,99307.34
2023-03-25T10:46:51.574Z,99321.72
2023-03-25T10:47:58.856Z,99316.69
2023-03-25T10:49:01.261Z,99317.22
2023-03-25T10:50:04.831Z,99317.22
2023-03-25T10:51:12.227Z,99320.00
2023-03-25T10:52:16.144Z,99334.44
2023-03-25T10:53:25.293Z,99332.53
2023-03-25T10:54:34.218Z,99323.66
2023-03-25T10:55:38.093Z,99323.75
2023-03-25T10:56:46.911Z,99307.72
2023-03-25T10:57:50.563Z,99317.88
2023-03-25T10:58:59.571Z,99320.72
2023-03-25T11:00:16.801Z,99321.91
2023-03-25T11:01:22.494Z,99319.22
2023-03-25T11:02:28.595Z,99311.00
2023-03-25T11:03:35.619Z,99316.59
2023-03-25T11:04:43.068Z,99307.25
2023-03-25T11:05:45.892Z,99304.22
2023-03-25T11:06:58.108Z,99309.84
2023-03-25T11:08:18.196Z,99299.06
2023-03-25T11:09:30.747Z,99307.44
2023-03-25T11:10:34.485Z,99301.66
2023-03-25T11:11:37.318Z,99309.47
2023-03-25T11:12:46.657Z,99306.16
2023-03-25T11:13:56.723Z,99309.22
2023-03-25T11:15:02.139Z,99305.13
2023-03-25T11:16:05.228Z,99308.19
2023-03-25T11:17:15.259Z,99305.72
2023-03-25T11:18:25.159Z,99305.19
2023-03-25T11:19:31.139Z,99303.53
2023-03-25T11:20:40.380Z,99299.72
2023-03-25T11:21:48.492Z,99308.31
2023-03-25T11:22:54.990Z,99316.94
2023-03-25T11:24:00.451Z,99316.41
2023-03-25T11:25:29.710Z,99320.28
2023-03-25T11:26:40.943Z,99311.47
2023-03-25T11:27:48.641Z,99309.31
2023-03-25T11:28:55.213Z,99313.75
2023-03-25T11:30:03.735Z,99310.47
2023-03-25T11:31:17.989Z,99306.66
2023-03-25T11:32:40.074Z,99307.53
2023-03-25T11:33:44.655Z,99304.53
2023-03-25T11:34:50.741Z,99299.91
2023-03-25T11:35:53.342Z,99290.25
2023-03-25T11:37:22.288Z,99304.63
2023-03-25T11:38:29.308Z,99296.13
2023-03-25T11:39:41.465Z,99300.00
2023-03-25T11:40:53.147Z,99295.88
2023-03-25T11:41:59.332Z,99289.00
2023-03-25T11:43:02.524Z,99292.06
2023-03-25T11:44:06.434Z,99284.03
2023-03-25T11:45:28.518Z,99283.53
2023-03-25T11:46:31.607Z,99281.06
2023-03-25T11:47:38.188Z,99279.41
2023-03-25T11:48:43.031Z,99279.41
2023-03-25T11:49:49.604Z,99276.34
2023-03-25T11:51:00.517Z,99272.75
2023-03-25T11:52:15.240Z,99270.00
2023-03-25T11:53:17.825Z,99268.03
2023-03-25T11:54:20.181Z,99268.88
2023-03-25T11:55:41.895Z,99262.75
2023-03-25T11:56:49.199Z,99257.72
2023-03-25T11:57:54.454Z,99255.50
2023-03-25T11:59:00.123Z,99252.44
2023-03-25T12:00:13.163Z,99250.72
2023-03-25T12:01:24.973Z,99257.59
2023-03-25T12:02:33.873Z,99245.97
2023-03-25T12:03:36.683Z,99248.13
2023-03-25T12:04:57.226Z,99237.28
2023-03-25T12:06:06.058Z,99246.94
2023-03-25T12:07:10.330Z,99243.88
2023-03-25T12:08:16.323Z,99246.03
2023-03-25T12:09:18.740Z,99246.56
2023-03-25T12:10:27.282Z,99237.41
2023-03-25T12:11:32.773Z,99244.28
2023-03-25T12:12:56.249Z,99239.78
2023-03-25T12:14:15.743Z,99240.00
2023-03-25T12:15:24.201Z,99238.56
2023-03-25T12:16:35.983Z,99232.44
2023-03-25T12:18:02.783Z,99229.06
2023-03-25T12:19:16.471Z,99230.13
2023-03-25T12:20:33.716Z,99235.06
2023-03-25T12:22:05.437Z,99237.22
2023-03-25T12:23:38.924Z,99234.09
2023-03-25T12:24:49.644Z,99233.78
2023-03-25T12:26:00.225Z,99233.50
2023-03-25T12:27:31.690Z,99229.00
2023-03-25T12:29:01.392Z,99229.22
2023-03-25T12:30:41.367Z,99216.41
2023-03-25T12:31:57.165Z,99203.94
2023-03-25T12:33:30.623Z,99204.97
2023-03-25T12:34:54.793Z,99211.53
2023-03-25T12:36:18.097Z,99208.16
2023-03-25T12:37:30.824Z,99225.00
2023-03-25T12:39:15.154Z,99209.22
2023-03-25T12:40:47.848Z,99210.25
2023-03-25T12:42:30.956Z,99211.59
2023-03-25T12:44:03.472Z,99221.25
2023-03-25T12:45:38.087Z,99237.03
2023-03-25T12:46:59.385Z,99250.41
2023-03-25T12:48:13.674Z,99256.84
2023-03-25T12:49:52.372Z,99245.25
2023-03-25T12:51:07.087Z,99228.63
2023-03-25T12:52:21.401Z,99230.25
2023-03-25T12:54:01.865Z,99225.00
2023-03-25T12:55:16.791Z,99213.44
2023-03-25T12:56:28.927Z,99214.25
2023-03-25T12:57:37.192Z,99201.50
2023-03-25T12:59:00.131Z,99207.03
2023-03-25T13:00:27.126Z,99208.69
2023-03-25T13:01:54.793Z,99204.81
2023-03-25T13:03:08.199Z,99208.38
2023-03-25T13:04:17.117Z,99197.00
2023-03-25T13:05:44.338Z,99193.41
2023-03-25T13:06:53.141Z,99208.91
2023-03-25T13:08:05.378Z,99201.72
2023-03-25T13:09:34.220Z,99199.75
2023-03-25T13:10:38.814Z,99209.22
2023-03-25T13:11:46.004Z,99189.28
2023-03-25T13:12:54.870Z,99194.63
2023-03-25T13:14:02.601Z,99179.94
2023-03-25T13:15:17.842Z,99179.09
2023-03-25T13:16:28.138Z,99184.97
2023-03-25T13:17:55.446Z,99175.00
2023-03-25T13:19:02.072Z,99176.66
2023-03-25T13:20:10.310Z,99167.84
2023-03-25T13:21:25.669Z,99171.94